x

Buoy A01 - Mass. Bay/stellwagen (44029) Wave Buoy

6:04 - Mon 6th Jul 2015 All times are EDT. -4 hours from GMT.

  • Sig Wave height 1.6ft
  • Peak Period 11s
  • Wind
    2mph
  • Sea Temp 64°f
  • Air Temp 66°f
  • Sea Pressure 1019.7mb
  • Buoy A01 - Mass. Bay/stellwagen
  • Buoy A01 - Mass. Bay/stellwagen

More Historic Weather Station data

Upgrade to MSW Pro to gain access to the past 30 days of data for over 8000 Wavebouys and Weather Stations around the globe.

Join Pro

Comparision Forecast

View Surf forecast
   
lun. 07/06 6:04 1.6ft 11s 2
mph
1019.7mb 64f 66f
5:04 1.3ft 8s 7 9 mph 1019.4mb 64f 65f
4:04 1.3ft 8s 7
mph
1019mb 64f 66f
3:04 1.3ft 6s 9
mph
1018.9mb 63f 66f
2:04 1.3ft 5s 7 9 mph 1018.8mb 64f 66f
1:04 1.6ft 6s 9
mph
1018.8mb 64f 67f
12:04 2ft 6s 7
mph
1019mb 64f 67f
dim. 07/05 11:04 2ft 8s 9
mph
1018.6mb 64f 68f
10:04 2ft 8s 7 9 mph 1018.3mb 64f 68f
9:04 2.5ft 8s 9 11 mph 1017.4mb 65f 69f
8:04 2ft 8s 11 13 mph 1017.1mb 65f 68f
7:04 2.5ft 8s 11 13 mph 1016.9mb 65f 69f
6:04 1.6ft 8s 11 13 mph 1016.5mb 64f 69f
5:04 1.6ft 8s 9 11 mph 1016.7mb 63f 71f
4:04 1.6ft 8s 4
mph
1016.8mb 62f 71f
3:04 1.6ft 8s 4 7 mph 1016.9mb 63f 69f
2:04 1.3ft 8s 7
mph
1016.9mb 63f 69f
1:04 1.3ft 8s 4 7 mph 1017.2mb 63f 68f
12:04 1.3ft 8s 7 9 mph 1017.1mb 63f 66f
11:04 1.6ft 8s 9
mph
1016.8mb 62f 66f
10:04 1.6ft 8s 9 11 mph 1017.1mb 62f 65f
9:04 1.6ft 8s 9 11 mph 1017.1mb 62f 64f
8:04 1.6ft 8s 9 11 mph 1016.5mb 62f 63f
7:04 1.6ft 8s 9 11 mph 1016mb 62f 63f
6:04 1.6ft 8s 9
mph
1015.2mb 62f 63f
5:04 1.3ft 8s 7 9 mph 1014.9mb 62f 63f
4:04 1.3ft 8s 9 11 mph 1014.3mb 61f 63f
3:04 1.6ft 8s 9
mph
1014.3mb 62f 63f
2:04 1.6ft 8s 9
mph
1014.4mb 63f 64f
1:04 1.3ft 8s 4 7 mph 1014.4mb 63f 63f
12:04 1.6ft 8s 2
mph
1014.4mb 63f 63f
sam. 07/04 11:04 1.6ft 8s 4
mph
1014.5mb 63f 63f
10:04 1.6ft 6s 2 4 mph 1014.4mb 63f 63f
9:04 1.6ft 8s 2
mph
1013.8mb 63f 63f
8:04 2ft 8s 2
mph
1013.4mb 63f 64f
7:04 2ft 8s  -  2 mph 1013.6mb 63f 65f
6:04 2ft 8s 4 7 mph 1013.3mb 63f 64f
5:04 2ft 8s 7 9 mph 1013.9mb 63f 63f
4:04 2ft 8s  -  2 mph 1014.4mb 63f 64f
3:04 1.6ft 8s 7
mph
1014.3mb 60f 62f
2:04 2ft 11s 7 9 mph 1014.4mb 60f 63f
1:04 2ft 8s 4
mph
1014.4mb 60f 63f
12:04 2.5ft 6s 4 7 mph 1014.7mb 59f 64f
11:04 2.5ft 8s 2 4 mph 1015.1mb 60f 62f
10:04 2.5ft 8s 4 7 mph 1015.1mb 61f 63f
9:04 2.5ft 8s 7 9 mph 1015mb 61f 63f
8:04 2ft 8s 9 11 mph 1015.3mb 62f 63f
7:04 2ft 8s 4 7 mph 1014.9mb 62f 63f
6:04 2.5ft 8s 9
mph
1015.2mb 62f 62f
5:04 1.6ft 8s 7 9 mph 1015mb 61f 62f
4:04 1ft 3s 7 9 mph 1015mb 61f 62f
3:04 2ft 11s 9 11 mph 1014.9mb 60f 62f
2:04 1ft 3s 9
mph
1014.6mb 59f 62f
1:04 1.3ft 3s 9
mph
1014.7mb 60f 62f
12:04 1.3ft 3s 11
mph
1014.5mb 59f 63f
ven. 07/03 11:04 1.3ft 3s 11 13 mph 1014.2mb 60f 63f
10:04 1ft 3s 13 16 mph 1014.2mb 61f 64f
9:04 2.5ft 8s 13 16 mph 1013.8mb 61f 65f
8:04 2.5ft 8s 11 13 mph 1013.9mb 62f 65f
7:04 2.5ft 8s 11
mph
1013.7mb 63f 64f
6:04 1.6ft 8s 11
mph
1013.3mb 63f 65f
5:04 1.6ft 8s 9 11 mph 1013.4mb 62f 65f
4:04 1.3ft 8s 7 9 mph 1013.4mb 61f 65f
3:04 1.6ft 8s 7 9 mph 1013.5mb 61f 65f
2:04 1.6ft 8s 9
mph
1013.4mb 61f 65f
1:04 1.6ft 8s 7 9 mph 1013.5mb 61f 65f
12:04 1.6ft 6s 4 7 mph 1013.1mb 61f 64f
11:04 2ft 6s 7
mph
1013.4mb 59f 65f
10:04  -   -  7
mph
1013.6mb 60f 63f
9:04 2.5ft 8s 4 9 mph 1013.4mb 58f 63f
8:04 2ft 8s 9
mph
1013mb 58f 62f
7:04 2ft 8s 11 13 mph 1012.3mb 58f 63f
6:04 1.6ft 8s 11 13 mph 1011.6mb 59f 62f
5:04 1.6ft 8s 11 13 mph 1011mb 59f 62f
4:04 1.6ft 8s 11 13 mph 1010.7mb 60f 62f
3:04 2ft 8s 11
mph
1010.2mb 60f 63f
2:04 2ft 8s 11 13 mph 1010.1mb 60f 64f
1:04 2.5ft 8s 4
mph
1010.1mb 59f 63f
12:04 1.6ft 8s 2 4 mph 1009.9mb 61f 65f
jeu. 07/02 11:04 2.5ft 6s 2 4 mph 1010.3mb 62f 65f
10:04 2.5ft 8s 4
mph
1010.6mb 63f 65f
9:04 2.5ft 8s 4 7 mph 1010.4mb 62f 65f
8:04 3ft 8s 4 7 mph 1010.4mb 63f 65f
7:04 2.5ft 8s 2 4 mph 1010.3mb 61f 65f
6:04 2.5ft 8s 4
mph
1010.2mb 61f 65f
5:04 2.5ft 8s 7
mph
1010.5mb 59f 66f
4:04 2.5ft 8s 4 7 mph 1010.4mb 59f 66f
3:04 2ft 8s 7 9 mph 1010.5mb 58f 67f
2:04 1.6ft 8s 7
mph
1010.4mb 59f 66f
1:04 2ft 8s 7
mph
1010.6mb 58f 64f